sensor_id;sensor_type;location;lat;lon;timestamp;P1;durP1;ratioP1;P2;durP2;ratioP2
80559;SDS011;70065;42.700;23.316;2023-08-31T00:00:07;3.65;;;3.20;;
80559;SDS011;70065;42.700;23.316;2023-08-31T00:02:57;3.88;;;3.17;;
80559;SDS011;70065;42.700;23.316;2023-08-31T00:05:23;4.43;;;3.42;;
80559;SDS011;70065;42.700;23.316;2023-08-31T00:08:09;4.03;;;3.17;;
80559;SDS011;70065;42.700;23.316;2023-08-31T00:10:36;3.67;;;3.00;;
80559;SDS011;70065;42.700;23.316;2023-08-31T00:13:02;4.15;;;3.20;;
80559;SDS011;70065;42.700;23.316;2023-08-31T00:15:29;4.55;;;3.00;;
80559;SDS011;70065;42.700;23.316;2023-08-31T00:17:57;3.53;;;2.90;;
80559;SDS011;70065;42.700;23.316;2023-08-31T00:20:24;3.85;;;3.00;;
80559;SDS011;70065;42.700;23.316;2023-08-31T00:22:51;4.95;;;3.25;;
80559;SDS011;70065;42.700;23.316;2023-08-31T00:25:17;4.05;;;2.85;;
80559;SDS011;70065;42.700;23.316;2023-08-31T00:27:43;4.20;;;3.05;;
80559;SDS011;70065;42.700;23.316;2023-08-31T00:30:12;4.53;;;3.10;;
80559;SDS011;70065;42.700;23.316;2023-08-31T00:32:39;4.70;;;3.45;;
80559;SDS011;70065;42.700;23.316;2023-08-31T00:35:07;4.15;;;3.10;;
80559;SDS011;70065;42.700;23.316;2023-08-31T00:37:34;3.85;;;3.08;;
80559;SDS011;70065;42.700;23.316;2023-08-31T00:40:01;3.83;;;2.90;;
80559;SDS011;70065;42.700;23.316;2023-08-31T00:42:29;4.22;;;3.22;;
80559;SDS011;70065;42.700;23.316;2023-08-31T00:44:56;3.75;;;3.03;;
80559;SDS011;70065;42.700;23.316;2023-08-31T00:47:22;4.50;;;3.13;;
80559;SDS011;70065;42.700;23.316;2023-08-31T00:49:49;3.15;;;2.80;;
80559;SDS011;70065;42.700;23.316;2023-08-31T00:52:15;4.07;;;3.20;;
80559;SDS011;70065;42.700;23.316;2023-08-31T00:54:44;4.18;;;2.90;;
80559;SDS011;70065;42.700;23.316;2023-08-31T00:57:11;4.55;;;3.30;;
80559;SDS011;70065;42.700;23.316;2023-08-31T00:59:37;3.38;;;2.85;;
80559;SDS011;70065;42.700;23.316;2023-08-31T01:02:22;4.15;;;3.25;;
80559;SDS011;70065;42.700;23.316;2023-08-31T01:05:01;4.25;;;3.08;;
80559;SDS011;70065;42.700;23.316;2023-08-31T01:13:11;4.18;;;3.05;;
80559;SDS011;70065;42.700;23.316;2023-08-31T01:15:41;4.95;;;3.00;;
80559;SDS011;70065;42.700;23.316;2023-08-31T01:21:00;3.88;;;3.15;;
80559;SDS011;70065;42.700;23.316;2023-08-31T01:26:16;5.15;;;3.30;;
80559;SDS011;70065;42.700;23.316;2023-08-31T01:28:42;4.07;;;2.72;;
80559;SDS011;70065;42.700;23.316;2023-08-31T01:31:09;3.33;;;3.00;;
80559;SDS011;70065;42.700;23.316;2023-08-31T01:33:35;3.88;;;3.10;;
80559;SDS011;70065;42.700;23.316;2023-08-31T01:36:00;3.50;;;2.90;;
80559;SDS011;70065;42.700;23.316;2023-08-31T01:38:29;3.90;;;2.80;;
80559;SDS011;70065;42.700;23.316;2023-08-31T01:41:17;3.47;;;2.92;;
80559;SDS011;70065;42.700;23.316;2023-08-31T01:43:46;3.60;;;3.08;;
80559;SDS011;70065;42.700;23.316;2023-08-31T01:46:13;3.83;;;3.17;;
80559;SDS011;70065;42.700;23.316;2023-08-31T01:48:41;3.60;;;2.97;;
80559;SDS011;70065;42.700;23.316;2023-08-31T01:51:08;4.38;;;3.10;;
80559;SDS011;70065;42.700;23.316;2023-08-31T01:53:34;3.10;;;2.72;;
80559;SDS011;70065;42.700;23.316;2023-08-31T01:56:00;2.97;;;2.63;;
80559;SDS011;70065;42.700;23.316;2023-08-31T01:58:26;3.95;;;3.08;;
80559;SDS011;70065;42.700;23.316;2023-08-31T02:00:52;3.50;;;2.97;;
80559;SDS011;70065;42.700;23.316;2023-08-31T02:03:17;3.42;;;2.90;;
80559;SDS011;70065;42.700;23.316;2023-08-31T02:05:43;4.53;;;3.13;;
80559;SDS011;70065;42.700;23.316;2023-08-31T02:08:09;4.20;;;3.08;;
80559;SDS011;70065;42.700;23.316;2023-08-31T02:10:34;3.58;;;2.85;;
80559;SDS011;70065;42.700;23.316;2023-08-31T02:13:00;4.70;;;3.20;;
80559;SDS011;70065;42.700;23.316;2023-08-31T02:15:26;4.18;;;2.72;;
80559;SDS011;70065;42.700;23.316;2023-08-31T02:17:52;3.88;;;3.10;;
80559;SDS011;70065;42.700;23.316;2023-08-31T02:20:25;3.60;;;2.80;;
80559;SDS011;70065;42.700;23.316;2023-08-31T02:22:51;3.60;;;2.88;;
80559;SDS011;70065;42.700;23.316;2023-08-31T02:25:17;2.90;;;2.38;;
80559;SDS011;70065;42.700;23.316;2023-08-31T02:27:44;3.38;;;2.80;;
80559;SDS011;70065;42.700;23.316;2023-08-31T02:35:07;3.72;;;2.95;;
80559;SDS011;70065;42.700;23.316;2023-08-31T02:37:32;4.15;;;3.13;;
80559;SDS011;70065;42.700;23.316;2023-08-31T02:40:00;3.92;;;3.08;;
80559;SDS011;70065;42.700;23.316;2023-08-31T02:42:26;3.45;;;2.90;;
80559;SDS011;70065;42.700;23.316;2023-08-31T02:44:52;3.78;;;2.88;;
80559;SDS011;70065;42.700;23.316;2023-08-31T02:49:47;3.10;;;2.80;;
80559;SDS011;70065;42.700;23.316;2023-08-31T02:52:13;3.70;;;2.85;;
80559;SDS011;70065;42.700;23.316;2023-08-31T02:54:39;3.42;;;2.70;;
80559;SDS011;70065;42.700;23.316;2023-08-31T02:57:06;4.60;;;3.00;;
80559;SDS011;70065;42.700;23.316;2023-08-31T02:59:32;3.58;;;2.80;;
80559;SDS011;70065;42.700;23.316;2023-08-31T03:02:01;3.05;;;2.70;;
80559;SDS011;70065;42.700;23.316;2023-08-31T03:04:28;3.80;;;2.75;;
80559;SDS011;70065;42.700;23.316;2023-08-31T03:06:54;4.00;;;2.65;;
80559;SDS011;70065;42.700;23.316;2023-08-31T03:09:19;3.55;;;2.80;;
80559;SDS011;70065;42.700;23.316;2023-08-31T03:11:45;3.80;;;2.90;;
80559;SDS011;70065;42.700;23.316;2023-08-31T03:14:11;4.10;;;2.63;;
80559;SDS011;70065;42.700;23.316;2023-08-31T03:16:37;3.15;;;2.53;;
80559;SDS011;70065;42.700;23.316;2023-08-31T03:19:03;3.40;;;2.72;;
80559;SDS011;70065;42.700;23.316;2023-08-31T03:21:29;3.47;;;2.70;;
80559;SDS011;70065;42.700;23.316;2023-08-31T03:23:55;3.47;;;2.60;;
80559;SDS011;70065;42.700;23.316;2023-08-31T03:26:21;3.95;;;2.97;;
80559;SDS011;70065;42.700;23.316;2023-08-31T03:28:46;3.97;;;3.03;;
80559;SDS011;70065;42.700;23.316;2023-08-31T03:31:12;4.30;;;3.00;;
80559;SDS011;70065;42.700;23.316;2023-08-31T03:33:38;3.65;;;2.83;;
80559;SDS011;70065;42.700;23.316;2023-08-31T03:36:04;2.95;;;2.65;;
80559;SDS011;70065;42.700;23.316;2023-08-31T03:38:30;4.18;;;2.60;;
80559;SDS011;70065;42.700;23.316;2023-08-31T03:40:58;3.83;;;2.80;;
80559;SDS011;70065;42.700;23.316;2023-08-31T03:43:23;3.15;;;2.63;;
80559;SDS011;70065;42.700;23.316;2023-08-31T03:45:53;3.33;;;2.50;;
80559;SDS011;70065;42.700;23.316;2023-08-31T03:48:22;4.55;;;3.10;;
80559;SDS011;70065;42.700;23.316;2023-08-31T03:50:53;3.58;;;2.90;;
80559;SDS011;70065;42.700;23.316;2023-08-31T03:53:20;3.65;;;2.63;;
80559;SDS011;70065;42.700;23.316;2023-08-31T03:55:46;3.30;;;2.70;;
80559;SDS011;70065;42.700;23.316;2023-08-31T03:58:12;3.75;;;2.58;;
80559;SDS011;70065;42.700;23.316;2023-08-31T04:00:38;4.13;;;2.70;;
80559;SDS011;70065;42.700;23.316;2023-08-31T04:03:04;3.20;;;2.90;;
80559;SDS011;70065;42.700;23.316;2023-08-31T04:05:33;3.35;;;2.38;;
80559;SDS011;70065;42.700;23.316;2023-08-31T04:07:59;4.22;;;2.85;;
80559;SDS011;70065;42.700;23.316;2023-08-31T04:10:26;4.32;;;3.00;;
80559;SDS011;70065;42.700;23.316;2023-08-31T04:12:52;3.08;;;2.45;;
80559;SDS011;70065;42.700;23.316;2023-08-31T04:15:19;3.05;;;2.53;;
80559;SDS011;70065;42.700;23.316;2023-08-31T04:17:45;3.22;;;2.42;;
80559;SDS011;70065;42.700;23.316;2023-08-31T04:20:15;3.00;;;2.42;;
80559;SDS011;70065;42.700;23.316;2023-08-31T04:22:46;3.03;;;2.35;;
80559;SDS011;70065;42.700;23.316;2023-08-31T04:25:11;3.35;;;2.42;;
80559;SDS011;70065;42.700;23.316;2023-08-31T04:27:38;2.92;;;2.60;;
80559;SDS011;70065;42.700;23.316;2023-08-31T04:30:07;2.75;;;2.17;;
80559;SDS011;70065;42.700;23.316;2023-08-31T04:32:33;2.60;;;2.40;;
80559;SDS011;70065;42.700;23.316;2023-08-31T04:34:58;3.05;;;2.20;;
80559;SDS011;70065;42.700;23.316;2023-08-31T04:37:26;2.80;;;2.35;;
80559;SDS011;70065;42.700;23.316;2023-08-31T04:39:52;3.20;;;2.42;;
80559;SDS011;70065;42.700;23.316;2023-08-31T04:42:18;3.25;;;2.42;;
80559;SDS011;70065;42.700;23.316;2023-08-31T04:44:43;3.25;;;2.20;;
80559;SDS011;70065;42.700;23.316;2023-08-31T04:47:10;3.58;;;2.72;;
80559;SDS011;70065;42.700;23.316;2023-08-31T04:49:36;2.80;;;2.13;;
80559;SDS011;70065;42.700;23.316;2023-08-31T04:52:01;2.60;;;2.28;;
80559;SDS011;70065;42.700;23.316;2023-08-31T04:54:27;2.10;;;1.90;;
80559;SDS011;70065;42.700;23.316;2023-08-31T04:56:53;3.83;;;2.38;;
80559;SDS011;70065;42.700;23.316;2023-08-31T04:59:19;2.22;;;1.83;;
80559;SDS011;70065;42.700;23.316;2023-08-31T05:01:44;2.90;;;2.13;;
80559;SDS011;70065;42.700;23.316;2023-08-31T05:04:10;3.05;;;2.30;;
80559;SDS011;70065;42.700;23.316;2023-08-31T05:06:40;2.25;;;2.00;;
80559;SDS011;70065;42.700;23.316;2023-08-31T05:09:05;2.97;;;2.17;;
80559;SDS011;70065;42.700;23.316;2023-08-31T05:11:35;1.80;;;1.67;;
80559;SDS011;70065;42.700;23.316;2023-08-31T05:14:02;2.05;;;1.85;;
80559;SDS011;70065;42.700;23.316;2023-08-31T05:16:50;1.80;;;1.70;;
80559;SDS011;70065;42.700;23.316;2023-08-31T05:19:18;2.08;;;1.88;;
80559;SDS011;70065;42.700;23.316;2023-08-31T05:21:47;2.28;;;1.85;;
80559;SDS011;70065;42.700;23.316;2023-08-31T05:24:21;2.13;;;1.92;;
80559;SDS011;70065;42.700;23.316;2023-08-31T05:26:48;2.03;;;1.80;;
80559;SDS011;70065;42.700;23.316;2023-08-31T05:29:30;2.10;;;1.90;;
80559;SDS011;70065;42.700;23.316;2023-08-31T05:32:16;2.00;;;1.80;;
80559;SDS011;70065;42.700;23.316;2023-08-31T05:40:44;2.40;;;1.70;;
80559;SDS011;70065;42.700;23.316;2023-08-31T05:43:16;1.92;;;1.73;;
80559;SDS011;70065;42.700;23.316;2023-08-31T05:45:42;2.92;;;1.70;;
80559;SDS011;70065;42.700;23.316;2023-08-31T05:48:08;1.83;;;1.65;;
80559;SDS011;70065;42.700;23.316;2023-08-31T05:50:57;2.00;;;1.75;;
80559;SDS011;70065;42.700;23.316;2023-08-31T05:56:28;1.83;;;1.70;;
80559;SDS011;70065;42.700;23.316;2023-08-31T05:59:07;2.05;;;1.63;;
80559;SDS011;70065;42.700;23.316;2023-08-31T06:05:16;1.75;;;1.65;;
80559;SDS011;70065;42.700;23.316;2023-08-31T06:07:43;2.08;;;1.80;;
80559;SDS011;70065;42.700;23.316;2023-08-31T06:10:29;1.70;;;1.60;;
80559;SDS011;70065;42.700;23.316;2023-08-31T06:12:55;1.80;;;1.52;;
80559;SDS011;70065;42.700;23.316;2023-08-31T07:17:10;1.98;;;1.80;;
80559;SDS011;70065;42.700;23.316;2023-08-31T07:19:44;2.10;;;1.90;;
80559;SDS011;70065;42.700;23.316;2023-08-31T07:22:10;3.00;;;1.90;;
80559;SDS011;70065;42.700;23.316;2023-08-31T07:24:52;3.13;;;1.95;;
80559;SDS011;70065;42.700;23.316;2023-08-31T07:27:23;2.78;;;2.05;;
80559;SDS011;70065;42.700;23.316;2023-08-31T07:39:06;3.17;;;1.90;;
80559;SDS011;70065;42.700;23.316;2023-08-31T07:41:53;2.83;;;1.70;;
80559;SDS011;70065;42.700;23.316;2023-08-31T07:47:26;2.95;;;1.90;;
80559;SDS011;70065;42.700;23.316;2023-08-31T07:49:58;2.38;;;1.95;;
80559;SDS011;70065;42.700;23.316;2023-08-31T07:52:27;2.40;;;1.98;;
80559;SDS011;70065;42.700;23.316;2023-08-31T07:54:52;1.58;;;1.48;;
80559;SDS011;70065;42.700;23.316;2023-08-31T07:57:28;2.58;;;1.73;;
80559;SDS011;70065;42.700;23.316;2023-08-31T08:02:54;2.25;;;1.70;;
80559;SDS011;70065;42.700;23.316;2023-08-31T08:05:20;2.58;;;1.60;;
80559;SDS011;70065;42.700;23.316;2023-08-31T08:14:07;2.53;;;2.00;;
80559;SDS011;70065;42.700;23.316;2023-08-31T08:16:35;2.28;;;1.75;;
80559;SDS011;70065;42.700;23.316;2023-08-31T08:19:10;2.20;;;1.95;;
80559;SDS011;70065;42.700;23.316;2023-08-31T08:21:38;3.47;;;1.73;;
80559;SDS011;70065;42.700;23.316;2023-08-31T08:24:04;2.22;;;1.88;;
80559;SDS011;70065;42.700;23.316;2023-08-31T08:26:30;2.65;;;1.85;;
80559;SDS011;70065;42.700;23.316;2023-08-31T08:35:02;2.45;;;1.70;;
80559;SDS011;70065;42.700;23.316;2023-08-31T08:37:29;1.85;;;1.60;;
80559;SDS011;70065;42.700;23.316;2023-08-31T08:42:54;1.77;;;1.40;;
80559;SDS011;70065;42.700;23.316;2023-08-31T08:46:00;3.17;;;1.77;;
80559;SDS011;70065;42.700;23.316;2023-08-31T08:49:14;1.80;;;1.48;;
80559;SDS011;70065;42.700;23.316;2023-08-31T08:52:10;1.50;;;1.40;;
80559;SDS011;70065;42.700;23.316;2023-08-31T08:54:43;1.90;;;1.63;;
80559;SDS011;70065;42.700;23.316;2023-08-31T09:03:20;1.73;;;1.50;;
80559;SDS011;70065;42.700;23.316;2023-08-31T09:05:46;2.42;;;1.65;;
80559;SDS011;70065;42.700;23.316;2023-08-31T09:11:37;1.85;;;1.50;;
80559;SDS011;70065;42.700;23.316;2023-08-31T09:14:17;3.10;;;1.90;;
80559;SDS011;70065;42.700;23.316;2023-08-31T09:16:53;2.28;;;1.92;;
80559;SDS011;70065;42.700;23.316;2023-08-31T09:19:20;3.15;;;1.85;;
80559;SDS011;70065;42.700;23.316;2023-08-31T09:21:55;2.65;;;2.13;;
80559;SDS011;70065;42.700;23.316;2023-08-31T09:24:23;3.00;;;2.20;;
80559;SDS011;70065;42.700;23.316;2023-08-31T09:26:57;2.63;;;2.22;;
80559;SDS011;70065;42.700;23.316;2023-08-31T09:29:26;2.30;;;2.10;;
80559;SDS011;70065;42.700;23.316;2023-08-31T09:32:15;3.35;;;2.08;;
80559;SDS011;70065;42.700;23.316;2023-08-31T09:35:11;3.47;;;2.22;;
80559;SDS011;70065;42.700;23.316;2023-08-31T09:38:16;2.92;;;2.03;;
80559;SDS011;70065;42.700;23.316;2023-08-31T09:43:44;2.30;;;2.10;;
80559;SDS011;70065;42.700;23.316;2023-08-31T09:49:11;3.95;;;2.50;;
80559;SDS011;70065;42.700;23.316;2023-08-31T09:52:04;3.45;;;2.10;;
80559;SDS011;70065;42.700;23.316;2023-08-31T09:55:09;2.58;;;2.17;;
80559;SDS011;70065;42.700;23.316;2023-08-31T09:57:41;3.85;;;2.30;;
80559;SDS011;70065;42.700;23.316;2023-08-31T10:00:50;3.00;;;1.98;;
80559;SDS011;70065;42.700;23.316;2023-08-31T10:03:36;2.28;;;1.90;;
80559;SDS011;70065;42.700;23.316;2023-08-31T10:06:03;2.70;;;2.20;;
80559;SDS011;70065;42.700;23.316;2023-08-31T10:08:30;2.47;;;2.22;;
80559;SDS011;70065;42.700;23.316;2023-08-31T10:11:14;2.33;;;2.10;;
80559;SDS011;70065;42.700;23.316;2023-08-31T10:14:11;3.38;;;2.50;;
80559;SDS011;70065;42.700;23.316;2023-08-31T10:19:35;3.00;;;2.25;;
80559;SDS011;70065;42.700;23.316;2023-08-31T10:25:12;3.13;;;1.98;;
80559;SDS011;70065;42.700;23.316;2023-08-31T10:31:15;3.30;;;2.35;;
80559;SDS011;70065;42.700;23.316;2023-08-31T10:34:10;3.47;;;2.40;;
80559;SDS011;70065;42.700;23.316;2023-08-31T10:37:19;3.78;;;2.20;;
80559;SDS011;70065;42.700;23.316;2023-08-31T10:39:49;2.90;;;2.20;;
80559;SDS011;70065;42.700;23.316;2023-08-31T10:49:22;3.58;;;2.45;;
80559;SDS011;70065;42.700;23.316;2023-08-31T10:59:22;2.60;;;2.08;;
80559;SDS011;70065;42.700;23.316;2023-08-31T11:02:00;3.63;;;2.42;;
80559;SDS011;70065;42.700;23.316;2023-08-31T11:07:15;3.88;;;2.58;;
80559;SDS011;70065;42.700;23.316;2023-08-31T11:09:45;3.22;;;2.47;;
80559;SDS011;70065;42.700;23.316;2023-08-31T11:12:13;3.17;;;2.60;;
80559;SDS011;70065;42.700;23.316;2023-08-31T11:14:40;3.95;;;2.58;;
80559;SDS011;70065;42.700;23.316;2023-08-31T11:17:06;3.70;;;2.25;;
80559;SDS011;70065;42.700;23.316;2023-08-31T11:19:34;3.10;;;2.50;;
80559;SDS011;70065;42.700;23.316;2023-08-31T11:22:00;3.20;;;2.30;;
80559;SDS011;70065;42.700;23.316;2023-08-31T11:24:28;3.50;;;2.65;;
80559;SDS011;70065;42.700;23.316;2023-08-31T11:26:57;2.47;;;2.25;;
80559;SDS011;70065;42.700;23.316;2023-08-31T11:29:31;4.50;;;2.50;;
80559;SDS011;70065;42.700;23.316;2023-08-31T11:31:57;2.85;;;2.40;;
80559;SDS011;70065;42.700;23.316;2023-08-31T11:34:28;2.72;;;2.22;;
80559;SDS011;70065;42.700;23.316;2023-08-31T11:36:55;2.78;;;2.40;;
80559;SDS011;70065;42.700;23.316;2023-08-31T11:39:22;3.78;;;2.72;;
80559;SDS011;70065;42.700;23.316;2023-08-31T11:41:49;3.08;;;2.13;;
80559;SDS011;70065;42.700;23.316;2023-08-31T11:44:15;3.53;;;2.58;;
80559;SDS011;70065;42.700;23.316;2023-08-31T11:46:45;3.55;;;2.60;;
80559;SDS011;70065;42.700;23.316;2023-08-31T11:49:18;3.70;;;2.22;;
80559;SDS011;70065;42.700;23.316;2023-08-31T11:51:54;3.50;;;2.30;;
80559;SDS011;70065;42.700;23.316;2023-08-31T12:03:54;3.55;;;2.28;;
80559;SDS011;70065;42.700;23.316;2023-08-31T12:06:23;4.00;;;2.50;;
80559;SDS011;70065;42.700;23.316;2023-08-31T12:09:30;2.65;;;2.20;;
80559;SDS011;70065;42.700;23.316;2023-08-31T12:22:35;2.72;;;2.30;;
80559;SDS011;70065;42.700;23.316;2023-08-31T12:28:23;3.47;;;2.50;;
80559;SDS011;70065;42.700;23.316;2023-08-31T12:34:17;2.60;;;2.40;;
80559;SDS011;70065;42.700;23.316;2023-08-31T12:37:08;3.33;;;2.47;;
80559;SDS011;70065;42.700;23.316;2023-08-31T12:39:33;2.85;;;2.55;;
80559;SDS011;70065;42.700;23.316;2023-08-31T12:47:43;2.85;;;2.25;;
80559;SDS011;70065;42.700;23.316;2023-08-31T12:50:27;4.00;;;2.70;;
80559;SDS011;70065;42.700;23.316;2023-08-31T12:58:07;2.95;;;2.35;;
80559;SDS011;70065;42.700;23.316;2023-08-31T13:00:52;3.97;;;2.67;;
80559;SDS011;70065;42.700;23.316;2023-08-31T13:03:20;3.53;;;2.67;;
80559;SDS011;70065;42.700;23.316;2023-08-31T13:05:47;3.53;;;2.40;;
80559;SDS011;70065;42.700;23.316;2023-08-31T13:08:13;3.33;;;2.47;;
80559;SDS011;70065;42.700;23.316;2023-08-31T13:10:39;3.63;;;2.70;;
80559;SDS011;70065;42.700;23.316;2023-08-31T13:13:05;3.50;;;2.70;;
80559;SDS011;70065;42.700;23.316;2023-08-31T13:15:31;3.90;;;2.42;;
80559;SDS011;70065;42.700;23.316;2023-08-31T13:17:58;3.45;;;2.47;;
80559;SDS011;70065;42.700;23.316;2023-08-31T13:20:24;3.22;;;2.38;;
80559;SDS011;70065;42.700;23.316;2023-08-31T13:26:19;3.67;;;2.50;;
80559;SDS011;70065;42.700;23.316;2023-08-31T13:34:33;4.78;;;2.83;;
80559;SDS011;70065;42.700;23.316;2023-08-31T13:37:00;3.53;;;2.53;;
80559;SDS011;70065;42.700;23.316;2023-08-31T13:42:49;3.10;;;2.40;;
80559;SDS011;70065;42.700;23.316;2023-08-31T13:45:53;3.47;;;2.50;;
80559;SDS011;70065;42.700;23.316;2023-08-31T13:48:26;3.63;;;2.70;;
80559;SDS011;70065;42.700;23.316;2023-08-31T13:51:07;3.00;;;2.63;;
80559;SDS011;70065;42.700;23.316;2023-08-31T13:53:35;3.75;;;2.63;;
80559;SDS011;70065;42.700;23.316;2023-08-31T13:56:01;3.53;;;2.45;;
80559;SDS011;70065;42.700;23.316;2023-08-31T13:58:27;3.88;;;2.50;;
80559;SDS011;70065;42.700;23.316;2023-08-31T14:03:42;3.85;;;2.63;;
80559;SDS011;70065;42.700;23.316;2023-08-31T14:06:58;3.03;;;2.40;;
80559;SDS011;70065;42.700;23.316;2023-08-31T14:16:00;3.70;;;2.70;;
80559;SDS011;70065;42.700;23.316;2023-08-31T14:18:38;2.78;;;2.38;;
80559;SDS011;70065;42.700;23.316;2023-08-31T14:21:05;2.90;;;2.05;;
80559;SDS011;70065;42.700;23.316;2023-08-31T14:29:38;2.63;;;2.40;;
80559;SDS011;70065;42.700;23.316;2023-08-31T14:32:04;4.18;;;3.00;;
80559;SDS011;70065;42.700;23.316;2023-08-31T14:43:40;3.80;;;2.42;;
80559;SDS011;70065;42.700;23.316;2023-08-31T14:46:06;3.60;;;2.17;;
80559;SDS011;70065;42.700;23.316;2023-08-31T14:48:35;3.28;;;2.45;;
80559;SDS011;70065;42.700;23.316;2023-08-31T14:51:11;3.97;;;2.88;;
80559;SDS011;70065;42.700;23.316;2023-08-31T14:53:50;3.97;;;2.75;;
80559;SDS011;70065;42.700;23.316;2023-08-31T14:59:57;3.17;;;2.58;;
80559;SDS011;70065;42.700;23.316;2023-08-31T15:06:12;4.20;;;2.83;;
80559;SDS011;70065;42.700;23.316;2023-08-31T15:08:39;3.67;;;2.72;;
80559;SDS011;70065;42.700;23.316;2023-08-31T15:11:08;4.35;;;2.80;;
80559;SDS011;70065;42.700;23.316;2023-08-31T15:13:37;3.47;;;2.60;;
80559;SDS011;70065;42.700;23.316;2023-08-31T15:16:02;2.95;;;2.50;;
80559;SDS011;70065;42.700;23.316;2023-08-31T15:18:29;3.50;;;2.50;;
80559;SDS011;70065;42.700;23.316;2023-08-31T15:20:57;3.13;;;2.63;;
80559;SDS011;70065;42.700;23.316;2023-08-31T15:23:22;3.13;;;2.63;;
80559;SDS011;70065;42.700;23.316;2023-08-31T15:25:48;3.80;;;2.65;;
80559;SDS011;70065;42.700;23.316;2023-08-31T15:28:15;3.67;;;2.67;;
80559;SDS011;70065;42.700;23.316;2023-08-31T15:30:41;3.83;;;2.60;;
80559;SDS011;70065;42.700;23.316;2023-08-31T15:33:19;4.00;;;2.85;;
80559;SDS011;70065;42.700;23.316;2023-08-31T15:36:10;3.38;;;2.45;;
80559;SDS011;70065;42.700;23.316;2023-08-31T15:38:48;3.83;;;2.60;;
80559;SDS011;70065;42.700;23.316;2023-08-31T15:45:10;3.53;;;2.65;;
80559;SDS011;70065;42.700;23.316;2023-08-31T15:47:54;3.13;;;2.35;;
80559;SDS011;70065;42.700;23.316;2023-08-31T15:51:04;4.20;;;2.65;;
80559;SDS011;70065;42.700;23.316;2023-08-31T15:53:30;3.50;;;2.58;;
80559;SDS011;70065;42.700;23.316;2023-08-31T15:55:56;4.18;;;2.90;;
80559;SDS011;70065;42.700;23.316;2023-08-31T15:58:22;3.50;;;2.30;;
80559;SDS011;70065;42.700;23.316;2023-08-31T16:00:51;3.80;;;2.72;;
80559;SDS011;70065;42.700;23.316;2023-08-31T16:03:25;3.30;;;2.58;;
80559;SDS011;70065;42.700;23.316;2023-08-31T16:05:52;3.60;;;2.55;;
80559;SDS011;70065;42.700;23.316;2023-08-31T16:08:18;4.05;;;2.55;;
80559;SDS011;70065;42.700;23.316;2023-08-31T16:10:47;3.72;;;2.75;;
80559;SDS011;70065;42.700;23.316;2023-08-31T16:13:16;3.08;;;2.50;;
80559;SDS011;70065;42.700;23.316;2023-08-31T16:15:45;3.85;;;2.50;;
80559;SDS011;70065;42.700;23.316;2023-08-31T16:18:16;4.50;;;2.50;;
80559;SDS011;70065;42.700;23.316;2023-08-31T16:20:45;4.10;;;2.80;;
80559;SDS011;70065;42.700;23.316;2023-08-31T16:23:13;5.78;;;2.80;;
80559;SDS011;70065;42.700;23.316;2023-08-31T16:25:39;4.07;;;3.00;;
80559;SDS011;70065;42.700;23.316;2023-08-31T16:28:05;3.85;;;2.70;;
80559;SDS011;70065;42.700;23.316;2023-08-31T16:30:31;4.20;;;2.88;;
80559;SDS011;70065;42.700;23.316;2023-08-31T16:32:59;3.72;;;2.75;;
80559;SDS011;70065;42.700;23.316;2023-08-31T16:35:26;4.55;;;2.75;;
80559;SDS011;70065;42.700;23.316;2023-08-31T16:37:53;4.18;;;2.90;;
80559;SDS011;70065;42.700;23.316;2023-08-31T16:40:19;4.07;;;2.55;;
80559;SDS011;70065;42.700;23.316;2023-08-31T16:42:46;3.95;;;2.72;;
80559;SDS011;70065;42.700;23.316;2023-08-31T16:45:13;3.35;;;2.40;;
80559;SDS011;70065;42.700;23.316;2023-08-31T16:47:39;3.28;;;2.42;;
80559;SDS011;70065;42.700;23.316;2023-08-31T16:50:05;4.18;;;2.80;;
80559;SDS011;70065;42.700;23.316;2023-08-31T16:52:35;3.40;;;2.47;;
80559;SDS011;70065;42.700;23.316;2023-08-31T16:55:15;2.90;;;2.40;;
80559;SDS011;70065;42.700;23.316;2023-08-31T16:57:50;3.90;;;2.88;;
80559;SDS011;70065;42.700;23.316;2023-08-31T17:00:17;3.72;;;2.85;;
80559;SDS011;70065;42.700;23.316;2023-08-31T17:02:44;4.20;;;2.50;;
80559;SDS011;70065;42.700;23.316;2023-08-31T17:05:09;3.58;;;2.75;;
80559;SDS011;70065;42.700;23.316;2023-08-31T17:07:35;4.15;;;2.85;;
80559;SDS011;70065;42.700;23.316;2023-08-31T17:10:01;3.67;;;2.67;;
80559;SDS011;70065;42.700;23.316;2023-08-31T17:12:29;3.35;;;2.42;;
80559;SDS011;70065;42.700;23.316;2023-08-31T17:14:57;4.78;;;2.72;;
80559;SDS011;70065;42.700;23.316;2023-08-31T17:17:23;3.83;;;2.58;;
80559;SDS011;70065;42.700;23.316;2023-08-31T17:19:51;3.92;;;2.75;;
80559;SDS011;70065;42.700;23.316;2023-08-31T17:22:19;3.75;;;2.63;;
80559;SDS011;70065;42.700;23.316;2023-08-31T17:24:46;4.15;;;2.70;;
80559;SDS011;70065;42.700;23.316;2023-08-31T17:27:11;4.72;;;2.83;;
80559;SDS011;70065;42.700;23.316;2023-08-31T17:29:37;3.75;;;2.60;;
80559;SDS011;70065;42.700;23.316;2023-08-31T17:32:03;3.88;;;2.58;;
80559;SDS011;70065;42.700;23.316;2023-08-31T17:34:29;4.07;;;2.80;;
80559;SDS011;70065;42.700;23.316;2023-08-31T17:36:55;3.70;;;2.70;;
80559;SDS011;70065;42.700;23.316;2023-08-31T17:39:24;3.40;;;2.63;;
80559;SDS011;70065;42.700;23.316;2023-08-31T17:41:50;3.72;;;2.78;;
80559;SDS011;70065;42.700;23.316;2023-08-31T17:44:15;4.70;;;3.00;;
80559;SDS011;70065;42.700;23.316;2023-08-31T17:46:42;4.13;;;2.45;;
80559;SDS011;70065;42.700;23.316;2023-08-31T17:49:11;3.78;;;2.80;;
80559;SDS011;70065;42.700;23.316;2023-08-31T17:51:40;4.55;;;2.85;;
80559;SDS011;70065;42.700;23.316;2023-08-31T17:54:06;3.40;;;2.78;;
80559;SDS011;70065;42.700;23.316;2023-08-31T17:56:32;3.88;;;2.67;;
80559;SDS011;70065;42.700;23.316;2023-08-31T17:59:13;3.15;;;2.30;;
80559;SDS011;70065;42.700;23.316;2023-08-31T18:01:42;3.40;;;2.50;;
80559;SDS011;70065;42.700;23.316;2023-08-31T18:04:28;3.17;;;2.35;;
80559;SDS011;70065;42.700;23.316;2023-08-31T18:06:53;3.60;;;2.50;;
80559;SDS011;70065;42.700;23.316;2023-08-31T18:09:32;3.38;;;2.28;;
80559;SDS011;70065;42.700;23.316;2023-08-31T18:12:02;3.95;;;2.60;;
80559;SDS011;70065;42.700;23.316;2023-08-31T18:14:38;4.03;;;2.65;;
80559;SDS011;70065;42.700;23.316;2023-08-31T18:17:06;3.05;;;2.55;;
80559;SDS011;70065;42.700;23.316;2023-08-31T18:19:31;3.55;;;2.47;;
80559;SDS011;70065;42.700;23.316;2023-08-31T18:22:00;3.47;;;2.63;;
80559;SDS011;70065;42.700;23.316;2023-08-31T18:24:27;3.45;;;2.42;;
80559;SDS011;70065;42.700;23.316;2023-08-31T18:26:53;4.22;;;2.70;;
80559;SDS011;70065;42.700;23.316;2023-08-31T18:29:19;4.75;;;2.90;;
80559;SDS011;70065;42.700;23.316;2023-08-31T18:31:45;3.47;;;2.70;;
80559;SDS011;70065;42.700;23.316;2023-08-31T18:34:12;3.80;;;2.40;;
80559;SDS011;70065;42.700;23.316;2023-08-31T18:36:38;3.85;;;2.75;;
80559;SDS011;70065;42.700;23.316;2023-08-31T18:39:04;3.47;;;2.40;;
80559;SDS011;70065;42.700;23.316;2023-08-31T18:41:41;4.15;;;2.55;;
80559;SDS011;70065;42.700;23.316;2023-08-31T18:44:07;3.70;;;2.55;;
80559;SDS011;70065;42.700;23.316;2023-08-31T18:46:34;3.92;;;2.58;;
80559;SDS011;70065;42.700;23.316;2023-08-31T18:49:02;3.35;;;2.63;;
80559;SDS011;70065;42.700;23.316;2023-08-31T18:51:28;3.63;;;2.72;;
80559;SDS011;70065;42.700;23.316;2023-08-31T18:53:59;3.60;;;2.70;;
80559;SDS011;70065;42.700;23.316;2023-08-31T18:56:25;3.90;;;2.75;;
80559;SDS011;70065;42.700;23.316;2023-08-31T18:58:53;4.38;;;2.72;;
80559;SDS011;70065;42.700;23.316;2023-08-31T19:01:22;2.65;;;2.38;;
80559;SDS011;70065;42.700;23.316;2023-08-31T19:03:49;3.60;;;2.60;;